Time;durP1;ratioP1;P1;durP2;ratioP2;P2;SDS_P1;SDS_P2;PMS_P1;PMS_P2;Temp;Humidity;BMP_temperature;BMP_pressure;BME280_temperature;BME280_humidity;BME280_pressure;Samples;Min_cycle;Max_cycle;Signal;HPM_P1;HPM_P2
2022/04/30 00:00:54;;;;;;;12.18;4.20;;;;;;;5.30;100.00;102223.38;4955785;28;20030;-72
2022/04/30 00:03:24;;;;;;;11.57;4.47;;;;;;;5.37;100.00;102230.00;4955816;28;20065;-72
2022/04/30 00:05:50;;;;;;;8.45;4.00;;;;;;;5.29;100.00;102226.94;4955675;28;20034;-72
2022/04/30 00:08:19;;;;;;;12.45;5.05;;;;;;;5.35;100.00;102234.53;4955566;28;20366;-73
2022/04/30 00:10:54;;;;;;;10.25;4.57;;;;;;;5.36;100.00;102238.91;4962377;28;20053;-72
2022/04/30 00:13:24;;;;;;;14.68;4.03;;;;;;;5.38;100.00;102233.50;4970144;28;20062;-72
2022/04/30 00:15:53;;;;;;;13.93;4.65;;;;;;;5.37;100.00;102232.66;4971506;28;20049;-72
2022/04/30 00:18:27;;;;;;;17.45;6.70;;;;;;;5.30;100.00;102228.69;4971019;28;20398;-72
2022/04/30 00:20:53;;;;;;;13.27;6.13;;;;;;;5.33;100.00;102230.28;4954235;28;20133;-72
2022/04/30 00:23:22;;;;;;;7.70;4.43;;;;;;;5.27;100.00;102227.06;4956461;28;20030;-72
2022/04/30 00:25:51;;;;;;;11.10;4.40;;;;;;;5.23;100.00;102227.34;4970590;28;20038;-72
2022/04/30 00:28:25;;;;;;;9.90;4.10;;;;;;;5.16;100.00;102226.00;4969162;28;20033;-72
2022/04/30 00:30:51;;;;;;;12.20;4.20;;;;;;;5.18;100.00;102221.47;4960268;28;20049;-72
2022/04/30 00:33:17;;;;;;;9.68;4.32;;;;;;;5.08;100.00;102218.53;4970022;28;20081;-72
2022/04/30 00:35:48;;;;;;;9.35;4.50;;;;;;;5.04;100.00;102214.34;4970378;28;20068;-72
2022/04/30 00:38:15;;;;;;;11.85;4.03;;;;;;;4.98;100.00;102209.41;4987075;28;20121;-72
2022/04/30 00:40:44;;;;;;;14.43;4.60;;;;;;;4.88;100.00;102213.53;4954224;28;20026;-71
2022/04/30 00:43:10;;;;;;;12.70;4.15;;;;;;;4.95;100.00;102222.81;4974600;28;20042;-72
2022/04/30 00:45:36;;;;;;;18.25;4.55;;;;;;;4.97;100.00;102208.56;4953743;28;20028;-72
2022/04/30 00:48:10;;;;;;;12.60;4.60;;;;;;;4.92;100.00;102215.91;4969623;28;20034;-72
2022/04/30 00:50:37;;;;;;;11.35;4.60;;;;;;;4.87;100.00;102218.00;4953255;28;20070;-72
2022/04/30 00:53:03;;;;;;;7.07;4.05;;;;;;;4.82;100.00;102210.31;4975922;28;20030;-72
2022/04/30 00:55:31;;;;;;;9.77;3.95;;;;;;;4.74;100.00;102201.97;4953057;28;20030;-73
2022/04/30 00:58:01;;;;;;;8.15;4.43;;;;;;;4.75;100.00;102208.09;4968744;28;20430;-72
2022/04/30 01:00:29;;;;;;;11.30;4.72;;;;;;;4.76;100.00;102201.88;4953316;28;20038;-72
2022/04/30 01:03:07;;;;;;;11.48;4.05;;;;;;;4.66;100.00;102193.63;4951339;28;20386;-73
2022/04/30 01:05:58;;;;;;;10.30;3.85;;;;;;;4.60;100.00;102193.97;4969345;28;20035;-72
2022/04/30 01:08:30;;;;;;;11.25;4.35;;;;;;;4.54;100.00;102187.25;4952784;28;20120;-74
2022/04/30 01:11:00;;;;;;;9.70;4.70;;;;;;;4.49;100.00;102183.16;4986486;28;20046;-72
2022/04/30 01:13:36;;;;;;;12.00;4.20;;;;;;;4.44;100.00;102176.31;4948140;28;20121;-72
2022/04/30 01:16:07;;;;;;;12.10;4.65;;;;;;;4.39;100.00;102170.44;4969722;28;20436;-72
2022/04/30 01:18:37;;;;;;;16.38;5.15;;;;;;;4.34;100.00;102169.88;4972528;28;20373;-72
2022/04/30 01:21:21;;;;;;;10.40;4.15;;;;;;;4.29;100.00;102173.72;4973555;28;20421;-72
2022/04/30 01:23:48;;;;;;;14.93;5.80;;;;;;;4.25;100.00;102172.19;4972684;28;20038;-72
2022/04/30 01:26:14;;;;;;;10.85;4.47;;;;;;;4.18;100.00;102167.22;4972726;28;20259;-72
2022/04/30 01:28:53;;;;;;;8.85;4.25;;;;;;;4.22;100.00;102175.84;4972559;28;20068;-72
2022/04/30 01:39:32;;;;;;;12.27;4.43;;;;;;;4.06;100.00;102173.22;4965594;28;20051;-72
2022/04/30 01:42:11;;;;;;;14.07;5.40;;;;;;;4.03;100.00;102170.75;4962578;28;20026;-71
2022/04/30 01:44:42;;;;;;;26.55;5.00;;;;;;;3.96;100.00;102172.03;4955774;28;20039;-72
2022/04/30 01:47:08;;;;;;;8.25;4.78;;;;;;;3.99;100.00;102177.97;4976649;28;20431;-72
2022/04/30 01:49:34;;;;;;;11.05;4.95;;;;;;;4.00;100.00;102174.41;4972183;28;20027;-72
2022/04/30 01:52:09;;;;;;;14.93;4.35;;;;;;;4.02;100.00;102171.66;4972004;28;20104;-72
2022/04/30 01:54:36;;;;;;;12.32;6.15;;;;;;;4.00;100.00;102176.19;4971887;28;20121;-72
2022/04/30 01:57:02;;;;;;;14.27;4.88;;;;;;;3.99;100.00;102177.97;4955627;28;20092;-72
2022/04/30 01:59:28;;;;;;;15.18;5.03;;;;;;;3.95;100.00;102176.44;4970055;28;20038;-72
2022/04/30 02:01:55;;;;;;;12.07;5.03;;;;;;;3.92;100.00;102171.31;4965216;28;20026;-72
2022/04/30 02:04:22;;;;;;;12.57;5.60;;;;;;;3.89;100.00;102175.94;4971890;28;20045;-71
2022/04/30 02:06:48;;;;;;;14.27;4.97;;;;;;;3.87;100.00;102172.53;4989124;28;20105;-71
2022/04/30 02:09:15;;;;;;;9.15;4.80;;;;;;;3.80;100.00;102162.28;4971592;28;20153;-72
2022/04/30 02:11:43;;;;;;;9.45;3.97;;;;;;;3.76;100.00;102158.09;4971769;28;20117;-71
2022/04/30 02:14:12;;;;;;;13.38;5.30;;;;;;;3.78;100.00;102158.88;4971908;28;20333;-71
2022/04/30 02:16:39;;;;;;;12.13;6.15;;;;;;;3.69;100.00;102151.44;4952605;28;20031;-72
2022/04/30 02:19:06;;;;;;;12.20;4.72;;;;;;;3.73;100.00;102154.78;4988032;28;20038;-72
2022/04/30 02:21:32;;;;;;;11.93;5.60;;;;;;;3.64;100.00;102150.84;4988331;28;20034;-72
2022/04/30 02:23:58;;;;;;;17.63;5.57;;;;;;;3.63;100.00;102157.06;4988347;28;20471;-72
2022/04/30 02:26:27;;;;;;;12.20;5.90;;;;;;;3.65;100.00;102152.53;4985783;28;20161;-72
2022/04/30 02:28:56;;;;;;;10.95;6.97;;;;;;;3.59;100.00;102155.53;4987847;28;20125;-72
2022/04/30 02:31:26;;;;;;;14.00;5.15;;;;;;;3.55;100.00;102153.97;4988042;28;20080;-72
2022/04/30 02:33:56;;;;;;;12.73;5.45;;;;;;;3.55;100.00;102148.69;4987788;28;20030;-71
2022/04/30 02:36:27;;;;;;;8.25;4.68;;;;;;;3.51;100.00;102152.44;4988109;28;20047;-71
2022/04/30 02:38:54;;;;;;;13.85;5.47;;;;;;;3.53;100.00;102154.06;4987763;28;20495;-71
2022/04/30 02:41:21;;;;;;;9.43;4.88;;;;;;;3.50;100.00;102153.38;4987863;28;20117;-71
2022/04/30 02:43:51;;;;;;;12.95;6.00;;;;;;;3.46;100.00;102146.56;4987923;28;20035;-71
2022/04/30 02:46:17;;;;;;;23.30;6.38;;;;;;;3.44;100.00;102148.41;4987783;28;20026;-71
2022/04/30 02:48:43;;;;;;;12.60;5.40;;;;;;;3.43;100.00;102147.56;4987938;28;20031;-72
2022/04/30 02:51:10;;;;;;;13.48;5.15;;;;;;;3.41;100.00;102140.66;4987635;28;20938;-71
2022/04/30 02:53:39;;;;;;;15.05;5.40;;;;;;;3.37;100.00;102138.19;4987746;28;20116;-71
2022/04/30 02:56:05;;;;;;;13.02;5.45;;;;;;;3.38;100.00;102146.97;4987592;28;20038;-72
2022/04/30 03:01:15;;;;;;;11.65;5.80;;;;;;;3.34;100.00;102148.06;4987496;28;19917;-72
2022/04/30 03:03:51;;;;;;;17.02;5.38;;;;;;;3.30;100.00;102146.50;4955149;28;20026;-71
2022/04/30 03:06:17;;;;;;;18.05;6.65;;;;;;;3.27;100.00;102136.97;4969979;28;20030;-71
2022/04/30 03:08:49;;;;;;;8.25;4.85;;;;;;;3.25;100.00;102132.72;4987130;28;20029;-72
2022/04/30 03:11:14;;;;;;;14.77;5.25;;;;;;;3.22;100.00;102133.72;4953509;28;20567;-72
2022/04/30 03:13:40;;;;;;;12.60;5.13;;;;;;;3.22;100.00;102128.44;4969774;28;20089;-71
2022/04/30 03:21:41;;;;;;;10.50;4.63;;;;;;;3.13;100.00;102124.50;4983797;28;19918;-71
2022/04/30 03:24:07;;;;;;;15.00;5.70;;;;;;;3.15;100.00;102116.50;4974031;28;20038;-71
2022/04/30 03:26:32;;;;;;;11.00;4.30;;;;;;;3.14;100.00;102117.47;4969854;28;20057;-72
2022/04/30 03:28:58;;;;;;;8.93;4.57;;;;;;;3.05;100.00;102123.22;4986861;28;20084;-71
2022/04/30 03:31:23;;;;;;;10.07;5.43;;;;;;;3.03;100.00;102111.88;4969446;28;20101;-71
2022/04/30 03:33:49;;;;;;;10.23;5.27;;;;;;;3.05;100.00;102116.16;4953611;28;20033;-71
2022/04/30 03:36:16;;;;;;;13.90;6.82;;;;;;;3.00;100.00;102120.81;4986784;28;20042;-71
2022/04/30 03:38:42;;;;;;;13.85;5.53;;;;;;;2.99;100.00;102118.25;4986762;28;20047;-71
2022/04/30 03:41:07;;;;;;;19.65;7.00;;;;;;;2.99;100.00;102121.72;4986439;28;20034;-71
2022/04/30 03:43:33;;;;;;;13.60;6.15;;;;;;;2.99;100.00;102118.25;4969410;28;20038;-69
2022/04/30 03:45:58;;;;;;;11.30;5.43;;;;;;;2.97;100.00;102123.59;4986808;28;20042;-69
2022/04/30 03:48:23;;;;;;;19.87;6.00;;;;;;;3.00;100.00;102112.03;4975805;28;20282;-71
2022/04/30 03:50:49;;;;;;;12.70;6.23;;;;;;;2.98;100.00;102108.63;4986357;28;20487;-71
2022/04/30 03:53:14;;;;;;;15.83;6.13;;;;;;;3.00;100.00;102114.66;4986460;28;20073;-71
2022/04/30 03:55:40;;;;;;;12.53;5.97;;;;;;;3.03;100.00;102111.88;4986606;28;20034;-71
2022/04/30 03:58:05;;;;;;;15.85;5.65;;;;;;;3.05;100.00;102115.28;5000152;23;20038;-76
2022/04/30 04:00:31;;;;;;;19.67;6.50;;;;;;;3.07;100.00;102111.66;4988391;28;20041;-76
2022/04/30 04:02:59;;;;;;;12.60;6.05;;;;;;;3.04;100.00;102111.78;4987704;28;20281;-75
2022/04/30 04:05:24;;;;;;;20.83;6.85;;;;;;;3.07;100.00;102114.28;4988700;28;20045;-75
2022/04/30 04:07:50;;;;;;;12.45;6.28;;;;;;;3.08;100.00;102113.34;4989102;28;20409;-72
2022/04/30 04:10:15;;;;;;;11.20;5.65;;;;;;;3.09;100.00;102111.53;4987364;28;20035;-76
2022/04/30 04:12:41;;;;;;;14.30;5.87;;;;;;;3.14;100.00;102117.47;4954920;28;20040;-76
2022/04/30 04:17:52;;;;;;;15.57;6.38;;;;;;;3.32;100.00;102123.53;4970987;28;20093;-76
2022/04/30 04:20:18;;;;;;;15.00;6.65;;;;;;;3.33;100.00;102122.59;4976702;28;20411;-76
2022/04/30 04:22:45;;;;;;;16.80;6.28;;;;;;;3.30;100.00;102126.28;4954850;28;20490;-73
2022/04/30 04:27:55;;;;;;;10.48;6.20;;;;;;;3.30;100.00;102131.53;4988584;28;20046;-76
2022/04/30 04:30:27;;;;;;;13.75;6.25;;;;;;;3.35;100.00;102124.22;4971213;28;20029;-76
2022/04/30 04:32:53;;;;;;;13.70;5.40;;;;;;;3.41;100.00;102119.56;4977600;28;20467;-76
2022/04/30 04:35:18;;;;;;;;;;;;;;;3.46;100.00;102117.50;4971296;28;20029;-74
2022/04/30 04:37:44;;;;;;;;;;;;;;;3.51;100.00;102120.75;4970879;28;19922;-72
2022/04/30 04:40:11;;;;;;;14.77;6.47;;;;;;;3.56;100.00;102121.38;4987015;28;20350;-76
2022/04/30 04:42:38;;;;;;;11.25;5.35;;;;;;;3.62;100.00;102122.81;4958180;28;20390;-72
2022/04/30 04:45:04;;;;;;;17.45;6.55;;;;;;;3.73;100.00;102129.22;4988048;28;20038;-75
2022/04/30 04:47:30;;;;;;;13.18;5.95;;;;;;;3.91;100.00;102134.41;4987653;28;20117;-76
2022/04/30 04:49:55;;;;;;;12.98;5.18;;;;;;;4.06;100.00;102135.38;4970049;28;20126;-73
2022/04/30 04:52:21;;;;;;;9.38;5.72;;;;;;;4.21;100.00;102138.00;4970528;28;20084;-76
2022/04/30 04:54:47;;;;;;;14.88;5.97;;;;;;;4.43;100.00;102131.47;4987293;28;20030;-76
2022/04/30 04:57:13;;;;;;;14.63;6.10;;;;;;;4.59;100.00;102134.94;4987985;28;20034;-76
2022/04/30 04:59:38;;;;;;;10.77;5.35;;;;;;;4.69;100.00;102123.81;4969305;28;20081;-76
2022/04/30 05:02:04;;;;;;;14.37;6.27;;;;;;;4.91;100.00;102141.91;4969787;28;20053;-72
2022/04/30 05:04:31;;;;;;;14.20;6.33;;;;;;;5.21;100.00;102141.84;4985582;28;20030;-73
2022/04/30 05:06:58;;;;;;;11.73;5.90;;;;;;;5.79;100.00;102156.78;4977396;28;20038;-76
2022/04/30 05:09:25;;;;;;;8.95;5.13;;;;;;;6.71;100.00;102155.25;4969124;28;20665;-73
2022/04/30 05:11:51;;;;;;;14.77;5.85;;;;;;;7.80;100.00;102148.56;4968989;28;20042;-73
2022/04/30 05:14:16;;;;;;;10.30;4.38;;;;;;;8.43;100.00;102125.38;4968827;28;20037;-75
2022/04/30 05:16:41;;;;;;;9.60;4.37;;;;;;;8.72;100.00;102074.38;4986107;28;20525;-75
2022/04/30 05:19:07;;;;;;;9.03;3.70;;;;;;;10.08;100.00;102014.59;4976720;28;20045;-75
2022/04/30 05:21:32;;;;;;;8.10;4.43;;;;;;;10.83;100.00;101937.91;4968530;28;20034;-74
2022/04/30 05:23:58;;;;;;;5.80;2.90;;;;;;;11.55;100.00;101859.25;4985942;28;20025;-73
2022/04/30 05:26:23;;;;;;;3.53;2.73;;;;;;;11.83;92.62;101760.34;4968418;28;20034;-74
2022/04/30 05:28:50;;;;;;;9.13;2.83;;;;;;;11.28;88.40;101712.91;4967572;28;20049;-71
2022/04/30 05:31:15;;;;;;;;;;;;;;;11.62;82.75;101659.75;4984720;28;20040;-75
2022/04/30 05:33:40;;;;;;;;;;;;;;;11.69;80.86;101659.19;4986071;28;19996;-73
2022/04/30 05:36:06;;;;;;;5.40;2.80;;;;;;;11.21;82.14;101655.66;4985680;28;20318;-75
2022/04/30 05:38:31;;;;;;;6.03;2.40;;;;;;;12.21;82.34;101763.91;4958581;28;20034;-75
2022/04/30 05:40:57;;;;;;;10.53;3.23;;;;;;;12.61;77.28;101675.09;4983289;28;20085;-74
2022/04/30 05:43:22;;;;;;;3.83;2.50;;;;;;;12.79;75.41;101680.47;4952205;28;20137;-73
2022/04/30 05:45:48;;;;;;;2.47;2.10;;;;;;;13.24;71.90;101643.78;4984758;28;20548;-75
2022/04/30 05:48:13;;;;;;;8.30;2.73;;;;;;;12.39;73.36;101625.53;4985372;28;20042;-75
2022/04/30 05:50:38;;;;;;;8.70;3.40;;;;;;;12.30;74.88;101680.00;4967783;28;20542;-71
2022/04/30 05:53:05;;;;;;;6.23;3.20;;;;;;;12.65;74.39;101711.31;4985405;28;20080;-72
2022/04/30 05:55:30;;;;;;;;;;;;;;;12.93;75.72;101794.34;4985793;28;20026;-75
2022/04/30 05:57:55;;;;;;;;;;;;;;;13.13;73.00;101727.16;4968486;28;20317;-74
2022/04/30 06:00:21;;;;;;;5.70;2.50;;;;;;;13.41;74.00;101789.59;4969511;28;19913;-73
2022/04/30 06:02:47;;;;;;;8.77;2.90;;;;;;;11.89;75.12;101671.47;4956025;28;20034;-75
2022/04/30 06:05:13;;;;;;;;;;;;;;;10.78;84.20;101815.44;4972186;28;20041;-75
2022/04/30 06:07:38;;;;;;;;;;;;;;;11.36;85.13;101889.50;4989392;28;20265;-75
2022/04/30 06:10:05;;;;;;;8.77;4.27;;;;;;;10.43;89.04;101880.00;4988680;28;20686;-72
2022/04/30 06:12:31;;;;;;;9.68;4.68;;;;;;;9.92;92.64;101900.31;4971269;28;20438;-75
2022/04/30 06:14:56;;;;;;;10.18;4.35;;;;;;;10.42;97.26;101990.44;4955452;28;20031;-75
2022/04/30 06:17:22;;;;;;;11.67;3.87;;;;;;;11.05;98.29;102018.84;4971550;28;20042;-74
2022/04/30 06:19:47;;;;;;;11.93;4.63;;;;;;;12.13;93.35;101986.84;4954971;28;20096;-73
2022/04/30 06:22:12;;;;;;;6.20;4.10;;;;;;;12.77;89.69;101979.91;4971027;28;20023;-74
2022/04/30 06:24:38;;;;;;;7.17;4.23;;;;;;;12.92;83.32;101877.56;4971081;28;21067;-74
2022/04/30 06:27:04;;;;;;;8.60;4.57;;;;;;;12.37;83.20;101848.94;4988709;28;20030;-72
2022/04/30 06:29:29;;;;;;;7.55;4.68;;;;;;;13.16;82.25;101896.63;4988322;28;20038;-73
2022/04/30 06:31:56;;;;;;;8.27;3.73;;;;;;;13.47;77.88;101840.78;4988436;28;20513;-75
2022/04/30 06:34:22;;;;;;;6.55;4.28;;;;;;;12.97;81.79;101904.75;4971002;28;20037;-74
2022/04/30 06:36:48;;;;;;;11.85;3.95;;;;;;;13.65;78.27;101878.34;4971010;28;20415;-75
2022/04/30 06:39:13;;;;;;;9.88;4.72;;;;;;;13.79;76.30;101852.78;4986798;28;20186;-73
2022/04/30 06:41:39;;;;;;;9.68;3.80;;;;;;;14.30;71.99;101801.88;4988615;28;20103;-72
2022/04/30 06:44:04;;;;;;;8.20;4.03;;;;;;;14.01;71.54;101783.44;4987219;28;20118;-74
2022/04/30 06:46:30;;;;;;;7.23;4.00;;;;;;;14.86;70.06;101815.69;4988707;28;20530;-75
2022/04/30 06:48:55;;;;;;;8.27;4.07;;;;;;;14.47;67.55;101682.72;4988709;28;20034;-76
2022/04/30 06:51:20;;;;;;;8.00;4.60;;;;;;;13.04;71.47;101668.13;4955122;28;20026;-71
2022/04/30 06:59:14;;;;;;;8.90;3.78;;;;;;;13.20;72.49;101768.44;4986403;28;20038;-72
2022/04/30 07:01:44;;;;;;;7.13;3.90;;;;;;;12.38;76.29;101813.97;4986593;28;20034;-75
2022/04/30 07:04:11;;;;;;;6.85;4.00;;;;;;;13.12;75.76;101878.31;4987924;28;20038;-76
2022/04/30 07:06:37;;;;;;;7.95;4.60;;;;;;;13.59;73.26;101848.59;4970680;28;20157;-74
2022/04/30 07:09:04;;;;;;;11.57;4.43;;;;;;;14.11;70.53;101813.69;4970139;28;20511;-72
2022/04/30 07:11:30;;;;;;;8.45;4.07;;;;;;;14.70;65.88;101730.47;4970058;28;20073;-75
2022/04/30 07:13:56;;;;;;;12.55;3.92;;;;;;;13.73;67.77;101689.69;4987389;28;20030;-75
2022/04/30 07:16:21;;;;;;;9.90;4.27;;;;;;;13.13;72.93;101802.22;4977212;28;20084;-75
2022/04/30 07:18:47;;;;;;;10.93;4.63;;;;;;;12.39;75.37;101790.72;4953675;28;20046;-74
2022/04/30 07:21:13;;;;;;;11.88;5.13;;;;;;;13.30;74.91;101888.06;4969955;28;20032;-76
2022/04/30 07:23:39;;;;;;;10.43;3.75;;;;;;;13.28;72.20;101801.56;4970152;28;20049;-72
2022/04/30 07:26:05;;;;;;;;;;;;;;;13.33;70.03;101741.25;4969688;28;20408;-74
2022/04/30 07:28:33;;;;;;;;;;;;;;;13.63;71.53;101825.81;4953530;28;19920;-75
2022/04/30 07:30:58;;;;;;;7.40;3.65;;;;;;;14.20;68.20;101791.25;4986522;28;19918;-72
2022/04/30 07:33:24;;;;;;;9.03;4.50;;;;;;;14.12;66.80;101737.53;4968882;28;20534;-74
2022/04/30 07:35:49;;;;;;;7.90;3.60;;;;;;;13.76;69.48;101798.56;4953600;28;20288;-73
2022/04/30 07:38:15;;;;;;;6.10;3.20;;;;;;;13.92;67.69;101745.81;4969253;28;20045;-75
2022/04/30 07:40:40;;;;;;;4.90;3.37;;;;;;;13.15;67.97;101675.06;4970029;28;20372;-75
2022/04/30 07:43:06;;;;;;;8.02;3.70;;;;;;;13.13;69.13;101725.31;4974362;28;20122;-74
2022/04/30 07:45:31;;;;;;;5.93;3.50;;;;;;;13.78;68.65;101792.03;4968474;28;20041;-75
2022/04/30 07:47:56;;;;;;;8.40;4.43;;;;;;;14.19;66.02;101777.97;4969598;28;20092;-75
2022/04/30 07:50:23;;;;;;;12.00;4.37;;;;;;;13.41;65.49;101631.34;4970384;28;20121;-75
2022/04/30 07:52:48;;;;;;;5.45;3.10;;;;;;;14.33;63.15;101707.56;4955239;28;20149;-72
2022/04/30 07:55:15;;;;;;;7.13;3.90;;;;;;;13.92;62.73;101630.38;4960643;28;20113;-73
2022/04/30 07:57:40;;;;;;;7.78;4.05;;;;;;;13.29;66.15;101684.41;4970450;28;20045;-73
2022/04/30 08:00:06;;;;;;;7.83;3.20;;;;;;;14.16;65.20;101776.47;4954264;28;20026;-76
2022/04/30 08:02:33;;;;;;;7.65;3.45;;;;;;;14.18;61.83;101610.63;4954750;28;20674;-75
2022/04/30 08:05:01;;;;;;;8.80;3.60;;;;;;;14.36;61.84;101672.28;4987797;28;20022;-72
2022/04/30 08:07:26;;;;;;;7.78;3.63;;;;;;;14.80;59.80;101642.47;4973032;28;20065;-75
2022/04/30 08:09:51;;;;;;;6.07;3.07;;;;;;;14.95;60.64;101701.78;4969742;28;20026;-76
2022/04/30 08:12:17;;;;;;;5.73;3.10;;;;;;;14.62;58.21;101551.25;4971149;28;20046;-75
2022/04/30 08:14:44;;;;;;;7.35;4.35;;;;;;;14.24;57.65;101502.56;4987125;28;20394;-75
2022/04/30 08:17:09;;;;;;;5.40;3.45;;;;;;;14.15;59.93;101601.06;4959406;28;20073;-75
2022/04/30 08:19:35;;;;;;;7.32;3.40;;;;;;;14.41;61.50;101710.25;4970098;28;20034;-74
2022/04/30 08:22:00;;;;;;;6.60;4.13;;;;;;;15.18;59.88;101724.28;4970255;28;20026;-74
2022/04/30 08:24:26;;;;;;;9.67;4.13;;;;;;;14.76;58.88;101604.31;4953452;28;20396;-76
2022/04/30 08:26:51;;;;;;;8.07;3.40;;;;;;;15.54;58.04;101685.38;4988534;28;20452;-75
2022/04/30 08:29:16;;;;;;;8.50;3.53;;;;;;;15.52;56.89;101637.13;4971803;28;20034;-76
2022/04/30 08:31:42;;;;;;;9.30;3.83;;;;;;;15.93;58.29;101751.94;4971263;28;20104;-76
2022/04/30 08:34:07;;;;;;;6.97;3.20;;;;;;;16.41;55.82;101671.88;4976651;28;20037;-74
2022/04/30 08:36:32;;;;;;;8.50;4.13;;;;;;;16.46;55.24;101647.97;4955661;28;20034;-76
2022/04/30 08:38:58;;;;;;;4.37;3.00;;;;;;;14.40;54.56;101305.63;4963664;28;20080;-75
2022/04/30 08:41:23;;;;;;;6.77;3.10;;;;;;;15.87;55.56;101609.91;4987737;28;20038;-73
2022/04/30 08:43:49;;;;;;;13.90;3.33;;;;;;;15.90;52.91;101478.47;4970266;28;20535;-73
2022/04/30 08:46:17;;;;;;;5.03;3.50;;;;;;;15.24;54.94;101491.47;4970420;28;20549;-75
2022/04/30 08:48:45;;;;;;;7.05;4.10;;;;;;;15.93;55.02;101628.06;4954658;28;20026;-76
2022/04/30 08:51:10;;;;;;;10.20;4.00;;;;;;;16.40;53.99;101632.50;4987247;28;20368;-76
2022/04/30 08:53:37;;;;;;;9.90;3.72;;;;;;;16.29;55.44;101647.22;4969639;28;20030;-76
2022/04/30 08:56:06;;;;;;;;;;;;;;;16.67;54.96;101706.63;4987674;28;20392;-75
2022/04/30 08:58:32;;;;;;;7.25;3.40;;;;;;;17.17;53.81;101705.22;4969506;28;19920;-76
2022/04/30 09:01:01;;;;;;;4.97;3.70;;;;;;;17.15;52.42;101583.13;4986461;28;20375;-76
2022/04/30 09:03:26;;;;;;;7.63;3.15;;;;;;;17.84;51.81;101671.97;4952895;28;20388;-76
2022/04/30 09:05:51;;;;;;;4.73;3.03;;;;;;;17.29;48.74;101401.50;4986196;28;20031;-75
2022/04/30 09:08:17;;;;;;;4.90;2.80;;;;;;;16.42;47.78;101264.78;4974422;28;20101;-76
2022/04/30 09:10:42;;;;;;;5.27;2.63;;;;;;;17.45;47.72;101419.31;4968996;28;20058;-76
2022/04/30 09:13:14;;;;;;;6.23;3.07;;;;;;;17.46;46.00;101344.56;4969002;28;20586;-76
2022/04/30 09:15:42;;;;;;;4.95;2.60;;;;;;;18.01;45.53;101390.78;4987503;28;20042;-76
2022/04/30 09:18:08;;;;;;;3.75;2.60;;;;;;;18.86;45.61;101521.38;4968512;28;20535;-77
2022/04/30 09:20:51;;;;;;;4.63;2.80;;;;;;;18.29;43.18;101283.50;4970989;28;20145;-73
2022/04/30 09:23:24;;;;;;;6.93;2.65;;;;;;;17.96;45.49;101369.75;4987361;28;20026;-75
2022/04/30 09:26:03;;;;;;;8.45;2.90;;;;;;;16.81;44.33;101079.41;4970350;28;20045;-76
2022/04/30 09:28:31;;;;;;;5.70;2.55;;;;;;;16.89;46.71;101303.09;4976298;28;20372;-74
2022/04/30 09:31:16;;;;;;;8.20;3.47;;;;;;;17.15;46.07;101294.44;4968539;28;20145;-77
2022/04/30 09:33:51;;;;;;;;;;;;;;;16.35;46.30;101177.66;4986481;28;20042;-76
2022/04/30 09:39:12;;;;;;;5.13;2.83;;;;;;;16.84;46.16;101308.25;4985823;28;20073;-76
2022/04/30 09:41:37;;;;;;;4.40;3.17;;;;;;;17.50;46.65;101488.94;4989670;28;20037;-76
2022/04/30 09:44:06;;;;;;;7.37;4.13;;;;;;;17.13;49.13;101493.44;4956485;28;20387;-74
2022/04/30 09:46:38;;;;;;;6.85;3.92;;;;;;;16.84;49.14;101435.81;4988180;28;20066;-76
2022/04/30 09:54:36;;;;;;;8.87;4.03;;;;;;;16.56;51.67;101499.47;4984819;28;20056;-75
2022/04/30 09:57:04;;;;;;;4.97;4.15;;;;;;;16.52;52.10;101533.19;4989044;28;20030;-76
2022/04/30 09:59:32;;;;;;;7.60;3.88;;;;;;;17.24;50.42;101549.66;4962832;28;20372;-74
2022/04/30 10:02:00;;;;;;;8.85;4.13;;;;;;;16.83;49.78;101466.50;4971155;28;20030;-74
2022/04/30 10:04:26;;;;;;;6.00;4.72;;;;;;;16.50;50.77;101432.81;4988663;28;20034;-74
2022/04/30 10:06:53;;;;;;;;;;;;;;;16.02;50.67;101377.38;4989098;28;20472;-74
2022/04/30 10:09:26;;;;;;;10.68;5.35;;;;;;;15.18;52.52;101365.72;4988279;28;19930;-74
2022/04/30 10:12:14;;;;;;;8.93;4.90;;;;;;;16.07;52.60;101497.19;4954549;28;20090;-74
2022/04/30 10:14:49;;;;;;;7.50;4.60;;;;;;;16.86;51.51;101579.41;4970818;28;20058;-74
2022/04/30 10:17:17;;;;;;;9.35;4.63;;;;;;;17.37;50.99;101646.16;4976557;28;20109;-74
2022/04/30 10:20:16;;;;;;;9.73;4.57;;;;;;;18.02;49.50;101636.44;4970730;28;20096;-74
2022/04/30 10:22:56;;;;;;;7.53;4.05;;;;;;;17.15;48.29;101383.47;4970543;28;20034;-74
2022/04/30 10:25:32;;;;;;;7.00;3.97;;;;;;;17.93;48.74;101561.94;4988304;28;20034;-74
2022/04/30 10:27:57;;;;;;;;;;;;;;;17.68;47.11;101413.72;4971125;28;20042;-74
2022/04/30 10:30:29;;;;;;;;;;;;;;;16.39;49.63;101355.97;4970980;28;19910;-74
2022/04/30 10:32:58;;;;;;;8.50;4.00;;;;;;;17.36;48.31;101446.63;4971129;28;19914;-74
2022/04/30 10:35:31;;;;;;;6.22;4.32;;;;;;;17.63;48.76;101501.72;4971235;28;20014;-75
2022/04/30 10:38:17;;;;;;;10.48;4.18;;;;;;;17.53;48.77;101493.94;4970785;28;20113;-74
2022/04/30 10:40:49;;;;;;;7.35;4.68;;;;;;;17.25;49.06;101437.13;4971084;28;20061;-74
2022/04/30 10:43:19;;;;;;;6.43;4.63;;;;;;;17.50;47.92;101433.06;4988381;28;20133;-74
2022/04/30 10:45:46;;;;;;;6.05;4.30;;;;;;;17.70;49.23;101538.59;4970928;28;20112;-74
2022/04/30 10:48:11;;;;;;;9.88;6.47;;;;;;;17.59;47.66;101390.59;4969417;28;20042;-74
2022/04/30 10:50:37;;;;;;;6.33;3.90;;;;;;;18.19;47.00;101466.81;4970928;28;20097;-74
2022/04/30 10:53:06;;;;;;;8.23;4.30;;;;;;;17.85;47.94;101462.13;4970676;28;20125;-74
2022/04/30 10:55:32;;;;;;;8.27;4.45;;;;;;;18.82;47.37;101572.31;4970649;28;20029;-74
2022/04/30 10:57:58;;;;;;;7.30;4.55;;;;;;;18.90;45.13;101392.81;4987624;28;20026;-74
2022/04/30 11:00:24;;;;;;;6.15;4.55;;;;;;;18.79;45.21;101385.25;4970909;28;20045;-74
2022/04/30 11:02:50;;;;;;;6.70;5.00;;;;;;;18.21;46.07;101347.69;4987616;28;20092;-74
2022/04/30 11:05:23;;;;;;;9.90;5.45;;;;;;;17.63;46.77;101275.78;4987863;28;20034;-74
2022/04/30 11:07:49;;;;;;;9.82;6.13;;;;;;;17.47;48.93;101387.56;4987866;28;20950;-74
2022/04/30 11:10:15;;;;;;;8.88;5.20;;;;;;;18.72;46.62;101494.22;4954186;28;20289;-75
2022/04/30 11:12:41;;;;;;;6.10;5.10;;;;;;;17.12;47.79;101251.69;4969727;28;20038;-74
2022/04/30 11:15:08;;;;;;;8.57;5.72;;;;;;;17.65;47.45;101334.97;4987414;28;20027;-74
2022/04/30 11:17:45;;;;;;;7.35;4.60;;;;;;;17.84;45.83;101272.22;4985996;28;20492;-75
2022/04/30 11:20:11;;;;;;;7.10;3.95;;;;;;;18.69;45.17;101412.66;4983613;28;20038;-74
2022/04/30 11:22:36;;;;;;;6.72;3.50;;;;;;;19.06;43.33;101359.97;4969590;28;20018;-75
2022/04/30 11:25:02;;;;;;;5.60;3.50;;;;;;;19.44;43.38;101397.34;4987179;28;20084;-75
2022/04/30 11:27:31;;;;;;;4.85;3.10;;;;;;;18.31;42.18;101051.69;4969799;28;20030;-75
2022/04/30 11:29:56;;;;;;;5.10;3.15;;;;;;;18.25;42.94;101141.69;4960103;28;20030;-74
2022/04/30 11:32:23;;;;;;;2.97;2.13;;;;;;;19.21;41.60;101210.94;4987078;28;20498;-75
2022/04/30 11:34:50;;;;;;;2.42;1.90;;;;;;;19.70;41.18;101263.84;4969510;28;20041;-75
2022/04/30 11:37:15;;;;;;;;;;;;;;;18.04;41.17;100929.22;4987188;28;20399;-75
2022/04/30 11:39:40;;;;;;;;;;;;;;;18.90;42.50;101231.31;4969766;28;19914;-75
2022/04/30 11:42:06;;;;;;;4.50;2.50;;;;;;;19.02;41.63;101190.13;4966850;28;19937;-75
2022/04/30 11:44:32;;;;;;;6.13;3.60;;;;;;;18.79;41.88;101142.63;4986936;28;20034;-74
2022/04/30 11:46:57;;;;;;;5.10;3.33;;;;;;;19.00;43.75;101316.66;4986683;28;20406;-74
2022/04/30 11:49:24;;;;;;;4.90;3.17;;;;;;;18.75;42.18;101157.56;4969222;28;20789;-76
2022/04/30 11:51:51;;;;;;;7.47;3.42;;;;;;;19.17;43.02;101298.97;4969134;28;20081;-74
2022/04/30 11:54:19;;;;;;;7.63;3.35;;;;;;;17.91;43.35;101048.91;4986616;28;20121;-74
2022/04/30 11:56:45;;;;;;;4.90;2.40;;;;;;;17.97;44.55;101193.13;4969183;28;20033;-74
2022/04/30 11:59:11;;;;;;;4.15;2.72;;;;;;;18.85;43.08;101254.63;4968667;28;20492;-75
2022/04/30 12:01:41;;;;;;;7.25;3.50;;;;;;;17.85;43.61;101076.72;4952822;28;20072;-75
2022/04/30 12:04:14;;;;;;;6.00;3.72;;;;;;;18.05;44.55;101202.91;4968858;28;20034;-76